createdAt,value
2022-11-01T00:02:12.779Z,70.21
2022-11-01T00:04:40.963Z,70.33
2022-11-01T00:07:08.677Z,70.36
2022-11-01T00:09:36.467Z,70.42
2022-11-01T00:12:05.153Z,70.40
2022-11-01T00:14:33.121Z,70.59
2022-11-01T00:17:00.987Z,70.51
2022-11-01T00:19:28.849Z,70.70
2022-11-01T00:21:56.743Z,70.71
2022-11-01T00:24:25.347Z,70.60
2022-11-01T00:26:53.172Z,70.55
2022-11-01T00:29:21.005Z,70.49
2022-11-01T00:31:48.955Z,70.82
2022-11-01T00:34:18.193Z,70.62
2022-11-01T00:36:46.063Z,71.02
2022-11-01T00:39:16.361Z,70.96
2022-11-01T00:41:44.068Z,70.88
2022-11-01T00:44:12.018Z,71.00
2022-11-01T00:46:39.685Z,71.09
2022-11-01T00:49:07.380Z,71.06
2022-11-01T00:51:35.409Z,71.02
2022-11-01T00:54:03.692Z,71.16
2022-11-01T00:56:31.547Z,71.24
2022-11-01T00:58:59.218Z,71.18
2022-11-01T01:01:27.080Z,71.28
2022-11-01T01:03:55.662Z,71.18
2022-11-01T01:06:23.579Z,71.26
2022-11-01T01:08:51.412Z,71.25
2022-11-01T01:11:19.082Z,71.27
2022-11-01T01:13:46.822Z,71.09
2022-11-01T01:16:14.697Z,71.16
2022-11-01T01:18:42.862Z,71.26
2022-11-01T01:21:11.066Z,71.24
2022-11-01T01:23:38.753Z,71.27
2022-11-01T01:26:08.904Z,71.45
2022-11-01T01:28:41.868Z,71.50
2022-11-01T01:31:14.186Z,71.47
2022-11-01T01:33:42.150Z,71.70
2022-11-01T01:36:11.033Z,71.54
2022-11-01T01:38:38.996Z,71.73
2022-11-01T01:41:33.234Z,71.76
2022-11-01T01:44:01.253Z,71.80
2022-11-01T01:46:29.020Z,71.73
2022-11-01T01:49:00.187Z,71.65
2022-11-01T01:51:29.134Z,71.64
2022-11-01T01:53:58.890Z,71.73
2022-11-01T01:56:32.548Z,71.92
2022-11-01T01:59:18.557Z,71.82
2022-11-01T02:01:46.297Z,71.85
2022-11-01T02:04:39.281Z,71.96
2022-11-01T02:07:08.704Z,72.01
2022-11-01T02:09:37.866Z,71.97
2022-11-01T02:12:05.655Z,71.98
2022-11-01T02:14:33.453Z,71.84
2022-11-01T02:17:28.381Z,71.95
2022-11-01T02:20:05.011Z,72.19
2022-11-01T02:23:03.909Z,72.10
2022-11-01T02:25:53.751Z,72.10
2022-11-01T02:28:38.819Z,72.15
2022-11-01T02:31:35.561Z,72.27
2022-11-01T02:34:16.741Z,72.31
2022-11-01T02:36:49.317Z,72.26
2022-11-01T02:39:23.410Z,72.30
2022-11-01T02:41:58.976Z,72.23
2022-11-01T02:44:31.633Z,72.25
2022-11-01T02:47:02.831Z,72.25
2022-11-01T02:49:34.656Z,72.30
2022-11-01T02:52:04.570Z,72.41
2022-11-01T02:54:42.662Z,72.54
2022-11-01T02:57:33.073Z,72.63
2022-11-01T03:00:16.588Z,72.55
2022-11-01T03:02:45.677Z,72.47
2022-11-01T03:05:25.369Z,72.55
2022-11-01T03:08:00.666Z,72.55
2022-11-01T03:10:42.478Z,72.78
2022-11-01T03:13:32.972Z,72.67
2022-11-01T03:16:31.040Z,72.67
2022-11-01T03:19:13.963Z,72.77
2022-11-01T03:21:50.846Z,72.74
2022-11-01T03:24:33.553Z,72.75
2022-11-01T03:27:08.181Z,72.63
2022-11-01T03:29:38.456Z,72.55
2022-11-01T03:32:08.418Z,72.48
2022-11-01T03:34:39.356Z,72.90
2022-11-01T03:37:12.137Z,72.79
2022-11-01T03:39:48.375Z,72.96
2022-11-01T03:42:20.332Z,73.01
2022-11-01T03:44:53.348Z,73.01
2022-11-01T03:47:21.319Z,72.94
2022-11-01T03:50:17.246Z,72.77
2022-11-01T03:52:45.726Z,73.23
2022-11-01T03:55:18.809Z,73.30
2022-11-01T03:57:49.852Z,73.12
2022-11-01T04:00:23.675Z,73.25
2022-11-01T04:02:53.243Z,73.22
2022-11-01T04:05:22.679Z,73.23
2022-11-01T04:07:51.966Z,73.04
2022-11-01T04:10:21.050Z,73.26
2022-11-01T04:12:50.828Z,73.35
2022-11-01T04:15:39.014Z,73.44
2022-11-01T04:21:19.292Z,73.50
2022-11-01T04:23:47.555Z,73.45
2022-11-01T04:26:21.986Z,73.44
2022-11-01T04:28:59.707Z,73.41
2022-11-01T04:31:34.105Z,73.44
2022-11-01T04:34:04.105Z,73.17
2022-11-01T04:36:32.509Z,73.17
2022-11-01T04:39:00.207Z,73.34
2022-11-01T04:41:30.513Z,73.43
2022-11-01T04:43:59.701Z,73.60
2022-11-01T04:46:32.156Z,73.43
2022-11-01T04:49:00.019Z,73.47
2022-11-01T04:51:28.176Z,73.82
2022-11-01T04:53:56.566Z,73.73
2022-11-01T04:56:24.539Z,73.78
2022-11-01T04:58:52.509Z,73.84
2022-11-01T05:01:20.214Z,73.73
2022-11-01T05:03:49.585Z,73.91
2022-11-01T05:06:17.969Z,73.91
2022-11-01T05:08:45.785Z,73.86
2022-11-01T05:11:13.681Z,73.95
2022-11-01T05:13:42.265Z,74.10
2022-11-01T05:16:25.219Z,74.00
2022-11-01T05:18:53.080Z,74.06
2022-11-01T05:21:20.949Z,74.15
2022-11-01T05:23:49.478Z,74.21
2022-11-01T05:26:17.652Z,74.12
2022-11-01T05:28:45.641Z,74.17
2022-11-01T05:31:13.457Z,74.35
2022-11-01T05:33:41.098Z,74.35
2022-11-01T05:36:08.933Z,74.27
2022-11-01T05:38:36.795Z,74.25
2022-11-01T05:41:04.808Z,74.23
2022-11-01T05:43:32.941Z,74.08
2022-11-01T05:46:04.806Z,74.25
2022-11-01T05:48:33.487Z,74.25
2022-11-01T05:51:01.157Z,74.36
2022-11-01T05:53:28.867Z,74.21
2022-11-01T05:55:57.185Z,74.40
2022-11-01T05:58:29.612Z,74.46
2022-11-01T06:01:05.666Z,74.46
2022-11-01T06:03:35.561Z,74.40
2022-11-01T06:06:04.008Z,74.60
2022-11-01T06:08:34.278Z,74.72
2022-11-01T06:11:04.120Z,74.59
2022-11-01T06:13:33.143Z,74.58
2022-11-01T06:16:06.114Z,74.67
2022-11-01T06:18:34.303Z,74.70
2022-11-01T06:21:02.154Z,74.82
2022-11-01T06:23:29.822Z,74.89
2022-11-01T06:26:05.326Z,74.93
2022-11-01T06:28:33.548Z,75.04
2022-11-01T06:31:02.883Z,75.07
2022-11-01T06:33:32.159Z,75.12
2022-11-01T06:36:02.286Z,75.09
2022-11-01T06:38:30.232Z,75.42
2022-11-01T06:40:58.095Z,75.24
2022-11-01T06:43:25.971Z,75.38
2022-11-01T06:45:53.757Z,75.35
2022-11-01T06:48:21.847Z,75.32
2022-11-01T06:50:49.636Z,75.31
2022-11-01T06:53:17.334Z,75.30
2022-11-01T06:55:45.370Z,75.33
2022-11-01T06:58:13.064Z,75.38
2022-11-01T07:00:40.729Z,75.43
2022-11-01T07:03:12.177Z,75.46
2022-11-01T07:05:40.546Z,75.73
2022-11-01T07:08:13.084Z,75.52
2022-11-01T07:10:43.287Z,75.56
2022-11-01T07:13:13.144Z,75.46
2022-11-01T07:15:41.540Z,75.50
2022-11-01T07:18:09.839Z,75.50
2022-11-01T07:20:42.304Z,75.45
2022-11-01T07:23:14.463Z,75.60
2022-11-01T07:25:42.936Z,75.58
2022-11-01T07:28:11.152Z,75.65
2022-11-01T07:30:39.626Z,75.63
2022-11-01T07:33:07.409Z,75.55
2022-11-01T07:35:36.765Z,75.61
2022-11-01T07:38:09.699Z,75.70
2022-11-01T07:40:40.659Z,75.67
2022-11-01T07:43:09.053Z,75.66
2022-11-01T07:45:37.663Z,75.67
2022-11-01T07:48:10.670Z,75.57
2022-11-01T07:50:40.606Z,75.62
2022-11-01T07:53:12.137Z,75.65
2022-11-01T07:55:40.964Z,75.62
2022-11-01T07:58:10.404Z,75.56
2022-11-01T08:00:39.914Z,75.66
2022-11-01T08:03:19.480Z,75.58
2022-11-01T08:05:48.160Z,75.49
2022-11-01T08:08:16.844Z,75.57
2022-11-01T08:10:45.276Z,75.53
2022-11-01T08:13:22.052Z,75.59
2022-11-01T08:15:52.380Z,75.52
2022-11-01T08:18:22.739Z,75.53
2022-11-01T08:20:52.512Z,75.52
2022-11-01T08:23:21.050Z,75.53
2022-11-01T08:25:49.290Z,75.43
2022-11-01T08:28:19.594Z,75.51
2022-11-01T08:30:50.715Z,75.55
2022-11-01T08:33:18.433Z,75.28
2022-11-01T08:35:50.407Z,75.40
2022-11-01T08:38:19.535Z,75.32
2022-11-01T08:40:48.201Z,75.19
2022-11-01T08:43:16.952Z,74.35
2022-11-01T08:45:45.995Z,74.73
2022-11-01T08:48:14.358Z,74.69
2022-11-01T08:50:42.154Z,74.79
2022-11-01T08:53:12.960Z,74.73
2022-11-01T08:55:42.007Z,74.11
2022-11-01T08:58:10.531Z,74.63
2022-11-01T09:00:38.310Z,74.68
2022-11-01T09:03:06.215Z,73.99
2022-11-01T09:05:34.787Z,73.91
2022-11-01T09:08:03.097Z,73.41
2022-11-01T09:10:31.545Z,73.58
2022-11-01T09:13:01.041Z,73.51
2022-11-01T09:15:29.815Z,73.02
2022-11-01T09:17:57.457Z,72.84
2022-11-01T09:20:26.735Z,72.84
2022-11-01T09:22:54.699Z,72.55
2022-11-01T09:25:22.895Z,72.01
2022-11-01T09:27:50.645Z,72.00
2022-11-01T09:30:18.582Z,71.62
2022-11-01T09:32:46.707Z,71.74
2022-11-01T09:35:14.533Z,71.53
2022-11-01T09:37:42.998Z,71.32
2022-11-01T09:40:14.355Z,71.45
2022-11-01T09:42:45.384Z,71.42
2022-11-01T09:45:20.270Z,71.34
2022-11-01T09:47:52.675Z,71.13
2022-11-01T09:50:54.335Z,71.24
2022-11-01T09:53:28.364Z,70.33
2022-11-01T09:56:10.648Z,70.77
2022-11-01T09:59:16.402Z,70.94
2022-11-01T10:01:57.016Z,70.54
2022-11-01T10:04:50.740Z,70.28
2022-11-01T10:07:45.724Z,69.16
2022-11-01T10:10:51.975Z,69.11
2022-11-01T10:13:41.587Z,69.24
2022-11-01T10:16:22.565Z,69.37
2022-11-01T10:19:02.849Z,69.83
2022-11-01T10:21:43.171Z,69.42
2022-11-01T10:24:44.145Z,68.76
2022-11-01T10:27:11.757Z,68.38
2022-11-01T10:30:03.995Z,68.17
2022-11-01T10:32:58.502Z,68.12
2022-11-01T10:35:34.460Z,68.46
2022-11-01T10:38:41.915Z,68.49
2022-11-01T10:41:36.564Z,68.22
2022-11-01T10:44:15.341Z,67.81
2022-11-01T10:46:49.483Z,68.03
2022-11-01T10:49:24.599Z,68.04
2022-11-01T10:51:59.226Z,67.84
2022-11-01T10:54:30.634Z,67.82
2022-11-01T10:57:08.654Z,67.84
2022-11-01T10:59:41.175Z,67.66
2022-11-01T11:02:29.960Z,67.63
2022-11-01T11:04:58.945Z,67.31
2022-11-01T11:07:32.186Z,67.27
2022-11-01T11:12:37.126Z,66.76
2022-11-01T11:15:18.355Z,66.98
2022-11-01T11:17:51.246Z,66.87
2022-11-01T11:20:26.858Z,66.83
2022-11-01T11:22:54.618Z,66.78
2022-11-01T11:25:33.002Z,66.79
2022-11-01T11:28:02.869Z,66.74
2022-11-01T11:30:35.875Z,66.78
2022-11-01T11:33:04.733Z,66.57
2022-11-01T11:35:36.575Z,66.38
2022-11-01T11:38:07.298Z,66.44
2022-11-01T11:40:38.958Z,66.35
2022-11-01T11:43:30.350Z,66.14
2022-11-01T11:46:21.115Z,66.24
2022-11-01T11:48:56.854Z,65.98
2022-11-01T11:51:32.813Z,65.88
2022-11-01T11:54:22.736Z,65.92
2022-11-01T11:56:54.698Z,65.03
2022-11-01T11:59:28.520Z,64.97
2022-11-01T12:02:15.016Z,65.34
2022-11-01T12:04:56.651Z,65.64
2022-11-01T12:07:45.697Z,65.65
2022-11-01T12:10:47.791Z,65.42
2022-11-01T12:13:25.349Z,65.45
2022-11-01T12:16:08.629Z,65.57
2022-11-01T12:18:49.985Z,65.45
2022-11-01T12:21:24.147Z,65.27
2022-11-01T12:24:05.138Z,65.47
2022-11-01T12:26:36.359Z,65.60
2022-11-01T12:29:25.197Z,65.32
2022-11-01T12:31:55.657Z,65.33
2022-11-01T12:34:31.180Z,65.32
2022-11-01T12:37:03.235Z,65.19
2022-11-01T12:39:43.183Z,65.13
2022-11-01T12:42:18.794Z,64.82
2022-11-01T12:44:52.929Z,64.68
2022-11-01T12:47:46.654Z,64.60
2022-11-01T12:50:32.816Z,64.76
2022-11-01T12:53:18.353Z,64.89
2022-11-01T12:55:47.297Z,64.76
2022-11-01T12:58:19.314Z,64.59
2022-11-01T13:01:08.934Z,64.63
2022-11-01T13:03:54.496Z,64.43
2022-11-01T13:06:44.046Z,64.59
2022-11-01T13:09:36.781Z,64.67
2022-11-01T13:12:37.084Z,64.52
2022-11-01T13:15:16.540Z,64.52
2022-11-01T13:18:18.562Z,64.54
2022-11-01T13:20:56.775Z,64.51
2022-11-01T13:23:44.308Z,64.30
2022-11-01T13:26:36.882Z,64.42
2022-11-01T13:29:35.530Z,64.33
2022-11-01T13:32:24.980Z,64.20
2022-11-01T13:35:13.661Z,64.14
2022-11-01T13:38:02.468Z,64.21
2022-11-01T13:40:50.503Z,64.11
2022-11-01T13:43:25.097Z,64.16
2022-11-01T13:46:14.525Z,64.17
2022-11-01T13:49:08.293Z,63.90
2022-11-01T13:51:56.840Z,64.02
2022-11-01T13:54:39.892Z,64.06
2022-11-01T13:57:11.537Z,64.07
2022-11-01T13:59:45.585Z,64.16
2022-11-01T14:02:22.832Z,64.12
2022-11-01T14:05:13.775Z,64.01
2022-11-01T14:07:45.562Z,64.10
2022-11-01T14:10:21.056Z,64.01
2022-11-01T14:13:00.090Z,64.12
2022-11-01T14:15:30.495Z,64.02
2022-11-01T14:18:08.415Z,63.96
2022-11-01T14:20:48.302Z,64.01
2022-11-01T14:23:29.592Z,63.99
2022-11-01T14:26:18.564Z,63.99
2022-11-01T14:28:52.649Z,64.09
2022-11-01T14:31:25.333Z,64.03
2022-11-01T14:33:59.886Z,64.13
2022-11-01T14:36:39.644Z,64.09
2022-11-01T14:39:23.084Z,64.14
2022-11-01T14:41:56.390Z,64.12
2022-11-01T14:44:50.601Z,64.14
2022-11-01T14:47:37.868Z,64.10
2022-11-01T14:50:27.068Z,64.15
2022-11-01T14:53:11.382Z,64.14
2022-11-01T14:55:39.546Z,64.18
2022-11-01T14:58:21.821Z,64.22
2022-11-01T15:00:55.441Z,64.24
2022-11-01T15:03:25.457Z,64.31
2022-11-01T15:05:54.372Z,64.19
2022-11-01T15:08:40.732Z,64.25
2022-11-01T15:11:11.013Z,64.22
2022-11-01T15:13:43.946Z,64.28
2022-11-01T15:16:28.069Z,64.37
2022-11-01T15:19:06.618Z,64.44
2022-11-01T15:21:35.331Z,64.50
2022-11-01T15:24:05.873Z,64.48
2022-11-01T15:26:34.504Z,64.58
2022-11-01T15:29:06.759Z,64.61
2022-11-01T15:31:36.328Z,64.57
2022-11-01T15:34:25.823Z,64.57
2022-11-01T15:36:56.273Z,64.60
2022-11-01T15:39:29.087Z,64.67
2022-11-01T15:41:58.202Z,64.77
2022-11-01T15:44:32.990Z,64.70
2022-11-01T15:47:07.918Z,64.80
2022-11-01T15:49:59.003Z,64.87
2022-11-01T15:52:48.188Z,64.85
2022-11-01T15:55:30.667Z,64.91
2022-11-01T15:58:07.978Z,64.89
2022-11-01T16:00:42.401Z,64.95
2022-11-01T16:03:27.493Z,65.04
2022-11-01T16:06:03.059Z,65.12
2022-11-01T16:08:39.529Z,65.14
2022-11-01T16:11:09.958Z,65.29
2022-11-01T16:13:38.238Z,65.24
2022-11-01T16:16:12.762Z,65.28
2022-11-01T16:18:45.654Z,65.30
2022-11-01T16:21:19.554Z,65.28
2022-11-01T16:23:56.277Z,65.42
2022-11-01T16:26:27.765Z,65.49
2022-11-01T16:28:56.555Z,65.50
2022-11-01T16:31:33.646Z,65.60
2022-11-01T16:34:01.551Z,65.68
2022-11-01T16:36:37.266Z,65.74
2022-11-01T16:39:33.239Z,65.70
2022-11-01T16:42:01.356Z,65.82
2022-11-01T16:44:31.378Z,65.76
2022-11-01T16:47:02.107Z,65.85
2022-11-01T16:49:34.569Z,65.86
2022-11-01T16:52:06.021Z,65.96
2022-11-01T16:54:33.929Z,65.89
2022-11-01T16:57:05.375Z,65.97
2022-11-01T16:59:43.332Z,65.95
2022-11-01T17:02:18.173Z,66.22
2022-11-01T17:04:50.809Z,66.22
2022-11-01T17:07:18.744Z,66.28
2022-11-01T17:09:49.760Z,66.25
2022-11-01T17:12:17.694Z,66.23
2022-11-01T17:14:46.692Z,66.34
2022-11-01T17:17:20.069Z,66.35
2022-11-01T17:19:56.068Z,66.40
2022-11-01T17:22:35.140Z,66.55
2022-11-01T17:25:06.615Z,66.45
2022-11-01T17:27:34.536Z,66.58
2022-11-01T17:30:04.536Z,66.56
2022-11-01T17:32:35.321Z,66.69
2022-11-01T17:35:06.720Z,66.70
2022-11-01T17:37:39.012Z,66.66
2022-11-01T17:40:22.852Z,66.84
2022-11-01T17:42:54.502Z,66.87
2022-11-01T17:45:45.392Z,67.00
2022-11-01T17:48:13.841Z,66.99
2022-11-01T17:50:43.809Z,66.95
2022-11-01T17:53:16.223Z,66.99
2022-11-01T17:55:45.727Z,67.05
2022-11-01T17:58:16.401Z,67.14
2022-11-01T18:00:45.361Z,67.12
2022-11-01T18:03:15.538Z,67.17
2022-11-01T18:05:43.430Z,67.26
2022-11-01T18:08:18.603Z,67.30
2022-11-01T18:11:12.547Z,67.31
2022-11-01T18:13:52.947Z,67.43
2022-11-01T18:16:28.355Z,67.46
2022-11-01T18:19:28.915Z,67.52
2022-11-01T18:22:12.874Z,67.55
2022-11-01T18:24:55.069Z,67.59
2022-11-01T18:27:39.634Z,67.71
2022-11-01T18:30:21.734Z,67.70
2022-11-01T18:33:25.171Z,67.74
2022-11-01T18:36:13.641Z,67.77
2022-11-01T18:39:04.086Z,67.82
2022-11-01T18:41:32.082Z,67.85
2022-11-01T18:44:04.412Z,67.87
2022-11-01T18:46:43.127Z,67.87
2022-11-01T18:49:13.972Z,67.89
2022-11-01T18:51:42.990Z,68.05
2022-11-01T18:54:14.369Z,68.06
2022-11-01T18:56:49.519Z,68.02
2022-11-01T18:59:33.109Z,68.07
2022-11-01T19:02:22.951Z,68.12
2022-11-01T19:05:12.500Z,68.17
2022-11-01T19:08:05.312Z,68.25
2022-11-01T19:10:35.394Z,68.19
2022-11-01T19:13:12.846Z,68.24
2022-11-01T19:15:41.975Z,68.27
2022-11-01T19:18:19.149Z,68.31
2022-11-01T19:20:53.145Z,68.49
2022-11-01T19:23:45.993Z,68.42
2022-11-01T19:26:23.360Z,68.51
2022-11-01T19:28:52.796Z,68.49
2022-11-01T19:31:34.314Z,68.57
2022-11-01T19:34:25.858Z,68.37
2022-11-01T19:36:56.058Z,68.66
2022-11-01T19:39:29.806Z,68.66
2022-11-01T19:42:29.723Z,68.60
2022-11-01T19:45:14.932Z,68.72
2022-11-01T19:47:50.473Z,68.85
2022-11-01T19:50:29.322Z,68.86
2022-11-01T19:53:00.705Z,68.90
2022-11-01T19:55:49.247Z,69.04
2022-11-01T19:58:29.342Z,69.03
2022-11-01T20:01:07.513Z,69.13
2022-11-01T20:04:02.846Z,69.10
2022-11-01T20:06:36.260Z,69.16
2022-11-01T20:09:37.027Z,69.27
2022-11-01T20:12:06.485Z,69.40
2022-11-01T20:14:37.396Z,69.34
2022-11-01T20:17:05.191Z,69.46
2022-11-01T20:19:34.591Z,69.40
2022-11-01T20:22:02.756Z,69.36
2022-11-01T20:24:31.318Z,69.61
2022-11-01T20:27:01.271Z,69.56
2022-11-01T20:29:29.409Z,69.61
2022-11-01T20:31:57.184Z,69.73
2022-11-01T20:34:30.368Z,69.67
2022-11-01T20:37:22.659Z,69.63
2022-11-01T20:39:45.820Z,69.73
2022-11-01T20:42:13.680Z,69.79
2022-11-01T20:44:41.676Z,69.81
2022-11-01T20:47:09.592Z,69.77
2022-11-01T20:49:37.508Z,69.86
2022-11-01T20:52:33.848Z,69.91
2022-11-01T20:54:57.716Z,70.08
2022-11-01T20:57:28.424Z,69.98
2022-11-01T20:59:59.667Z,70.09
2022-11-01T21:02:31.194Z,70.08
2022-11-01T21:05:18.351Z,70.09
2022-11-01T21:07:48.121Z,70.25
2022-11-01T21:10:40.231Z,70.24
2022-11-01T21:13:38.121Z,70.26
2022-11-01T21:16:25.077Z,70.33
2022-11-01T21:19:00.729Z,70.34
2022-11-01T21:21:46.288Z,70.41
2022-11-01T21:24:31.408Z,70.40
2022-11-01T21:27:11.487Z,70.46
2022-11-01T21:29:49.542Z,70.47
2022-11-01T21:32:41.009Z,70.49
2022-11-01T21:35:41.078Z,70.56
2022-11-01T21:38:35.056Z,70.53
2022-11-01T21:41:13.518Z,70.63
2022-11-01T21:43:44.987Z,70.60
2022-11-01T21:46:20.350Z,70.64
2022-11-01T21:48:54.884Z,70.76
2022-11-01T21:51:22.865Z,70.77
2022-11-01T21:53:53.865Z,70.71
2022-11-01T21:56:22.148Z,70.79
2022-11-01T21:58:51.685Z,70.82
2022-11-01T22:01:19.485Z,70.90
2022-11-01T22:03:54.065Z,70.79
2022-11-01T22:06:21.993Z,70.80
2022-11-01T22:08:54.593Z,70.80
2022-11-01T22:11:23.824Z,70.82
2022-11-01T22:13:56.655Z,70.84
2022-11-01T22:16:25.865Z,70.94
2022-11-01T22:18:53.866Z,70.85
2022-11-01T22:21:24.998Z,70.96
2022-11-01T22:23:56.056Z,71.02
2022-11-01T22:26:27.658Z,70.89
2022-11-01T22:28:58.631Z,70.97
2022-11-01T22:31:28.857Z,71.04
2022-11-01T22:33:57.816Z,71.00
2022-11-01T22:36:31.080Z,71.02
2022-11-01T22:39:03.050Z,71.09
2022-11-01T22:41:39.977Z,70.97
2022-11-01T22:44:16.542Z,70.94
2022-11-01T22:46:47.325Z,71.05
2022-11-01T22:49:29.309Z,71.02
2022-11-01T22:52:07.375Z,71.22
2022-11-01T22:54:55.045Z,71.15
2022-11-01T22:57:27.580Z,71.25
2022-11-01T23:00:23.883Z,71.32
2022-11-01T23:03:04.202Z,71.42
2022-11-01T23:05:39.437Z,71.32
2022-11-01T23:08:22.602Z,71.30
2022-11-01T23:10:55.132Z,71.33
2022-11-01T23:13:45.104Z,71.42
2022-11-01T23:16:26.811Z,71.40
2022-11-01T23:18:59.836Z,71.39
2022-11-01T23:21:28.088Z,71.45
2022-11-01T23:23:57.827Z,71.51
2022-11-01T23:26:25.687Z,71.44
2022-11-01T23:28:58.511Z,71.52
2022-11-01T23:31:29.406Z,71.54
2022-11-01T23:34:00.132Z,71.68
2022-11-01T23:36:38.702Z,71.65
2022-11-01T23:39:13.801Z,71.64
2022-11-01T23:41:50.928Z,71.72
2022-11-01T23:44:41.011Z,71.66
2022-11-01T23:47:24.788Z,71.68
2022-11-01T23:50:00.955Z,71.72
2022-11-01T23:52:46.372Z,71.81
2022-11-01T23:55:25.058Z,71.79
2022-11-01T23:58:02.163Z,71.84
